Time;durP1;ratioP1;P1;durP2;ratioP2;P2;SDS_P1;SDS_P2;PMS_P1;PMS_P2;Temp;Humidity;BMP_temperature;BMP_pressure;BME280_temperature;BME280_humidity;BME280_pressure;Samples;Min_cycle;Max_cycle;Signal;HPM_P1;HPM_P2
2021/03/13 00:01:24;;;;;;;;;;;16.60;61.60;;;;;;5051801;28;19966;-74
2021/03/13 00:03:50;;;;;;;;;;;16.60;61.60;;;;;;5036624;28;19960;-73
2021/03/13 00:06:20;;;;;;;;;;;16.70;61.70;;;;;;5059089;28;19916;-74
2021/03/13 00:08:58;;;;;;;;;;;16.60;61.60;;;;;;5057426;28;19928;-74
2021/03/13 00:11:24;;;;;;;;;;;16.60;61.60;;;;;;5055658;28;19928;-75
2021/03/13 00:13:50;;;;;;;;;;;16.60;61.70;;;;;;5049590;28;19921;-75
2021/03/13 00:16:15;;;;;;;;;;;16.60;61.70;;;;;;5034584;28;20278;-74
2021/03/13 00:18:46;;;;;;;;;;;16.60;61.60;;;;;;5056158;28;19917;-74
2021/03/13 00:21:12;;;;;;;;;;;16.60;61.60;;;;;;5054564;28;19924;-74
2021/03/13 00:23:37;;;;;;;;;;;16.60;61.60;;;;;;5038066;28;20015;-74
2021/03/13 00:26:03;;;;;;;;;;;16.70;61.60;;;;;;5055243;28;20003;-75
2021/03/13 00:28:32;;;;;;;;;;;16.60;61.60;;;;;;5058272;28;21148;-74
2021/03/13 00:30:57;;;;;;;;;;;16.60;61.60;;;;;;5033154;28;20324;-74
2021/03/13 00:33:36;;;;;;;;;;;16.60;61.60;;;;;;5053813;28;19927;-74
2021/03/13 00:36:01;;;;;;;;;;;16.60;61.60;;;;;;5038935;28;20361;-76
2021/03/13 00:38:27;;;;;;;;;;;16.70;61.60;;;;;;5038582;28;19919;-73
2021/03/13 00:40:53;;;;;;;;;;;16.60;61.60;;;;;;5051378;28;19971;-74
2021/03/13 00:43:18;;;;;;;;;;;16.60;61.70;;;;;;5060778;28;20015;-75
2021/03/13 00:45:44;;;;;;;;;;;16.60;61.60;;;;;;5032812;28;19917;-76
2021/03/13 00:48:11;;;;;;;;;;;16.60;61.60;;;;;;5047219;28;19935;-75
2021/03/13 00:50:37;;;;;;;;;;;16.60;61.60;;;;;;5049556;28;19913;-73
2021/03/13 00:53:03;;;;;;;;;;;16.70;61.60;;;;;;5033595;28;19921;-74
2021/03/13 00:55:29;;;;;;;;;;;16.60;61.70;;;;;;5047587;28;19912;-74
2021/03/13 00:57:54;;;;;;;;;;;16.60;61.70;;;;;;5032207;28;19917;-74
2021/03/13 01:00:22;;;;;;;;;;;16.60;61.70;;;;;;5027718;28;19968;-74
2021/03/13 01:02:48;;;;;;;;;;;16.60;61.80;;;;;;5051217;28;20007;-75
2021/03/13 01:05:14;;;;;;;;;;;16.60;61.80;;;;;;5028920;28;19920;-75
2021/03/13 01:07:44;;;;;;;;;;;16.60;61.80;;;;;;5043377;28;19927;-75
2021/03/13 01:10:29;;;;;;;;;;;16.60;61.80;;;;;;5043685;28;19921;-75
2021/03/13 01:12:55;;;;;;;;;;;16.60;61.80;;;;;;5037757;28;19921;-75
2021/03/13 01:15:21;;;;;;;;;;;16.60;61.80;;;;;;5039389;28;21163;-75
2021/03/13 01:17:47;;;;;;;;;;;16.60;61.80;;;;;;5037118;28;19920;-76
2021/03/13 01:20:13;;;;;;;;;;;16.60;61.80;;;;;;5035607;28;20309;-75
2021/03/13 01:22:39;;;;;;;;;;;16.60;61.80;;;;;;5039395;28;19997;-76
2021/03/13 01:25:05;;;;;;;;;;;16.60;61.80;;;;;;5046057;28;19928;-75
2021/03/13 01:27:31;;;;;;;;;;;16.60;61.80;;;;;;5041187;28;19912;-75
2021/03/13 01:29:56;;;;;;;;;;;16.60;61.80;;;;;;5056090;28;20665;-76
2021/03/13 01:32:22;;;;;;;;;;;16.60;61.80;;;;;;5057143;28;20361;-76
2021/03/13 01:34:47;;;;;;;;;;;16.60;61.80;;;;;;5074510;28;19916;-75
2021/03/13 01:37:14;;;;;;;;;;;16.60;61.80;;;;;;5079533;28;19999;-75
2021/03/13 01:39:39;;;;;;;;;;;16.60;61.80;;;;;;5071257;28;19919;-75
2021/03/13 01:42:05;;;;;;;;;;;16.60;61.80;;;;;;5064941;28;19920;-75
2021/03/13 01:44:30;;;;;;;;;;;16.60;61.90;;;;;;5053617;28;19913;-77
2021/03/13 01:46:56;;;;;;;;;;;16.60;61.80;;;;;;5050861;28;20377;-76
2021/03/13 01:49:26;;;;;;;;;;;16.60;61.80;;;;;;5076273;28;19917;-75
2021/03/13 01:51:51;;;;;;;;;;;16.60;61.80;;;;;;5059887;28;19921;-75
2021/03/13 01:54:17;;;;;;;;;;;16.60;61.90;;;;;;5056415;28;20324;-76
2021/03/13 01:56:43;;;;;;;;;;;16.60;61.90;;;;;;5069191;28;19912;-75
2021/03/13 01:59:09;;;;;;;;;;;16.60;61.90;;;;;;5070744;28;21831;-74
2021/03/13 02:01:34;;;;;;;;;;;16.60;61.80;;;;;;5050289;28;19932;-74
2021/03/13 02:04:01;;;;;;;;;;;16.60;61.90;;;;;;5078710;28;19996;-74
2021/03/13 02:06:26;;;;;;;;;;;16.60;61.80;;;;;;5057310;28;21728;-74
2021/03/13 02:08:57;;;;;;;;;;;16.60;61.80;;;;;;5072337;28;19921;-75
2021/03/13 02:11:42;;;;;;;;;;;16.60;61.80;;;;;;5053159;28;20281;-75
2021/03/13 02:14:26;;;;;;;;;;;16.60;61.90;;;;;;5058194;28;19921;-75
2021/03/13 02:16:56;;;;;;;;;;;16.60;61.90;;;;;;5064720;28;19916;-74
2021/03/13 02:19:31;;;;;;;;;;;16.60;61.90;;;;;;5075376;28;19912;-76
2021/03/13 02:21:58;;;;;;;;;;;16.60;61.90;;;;;;5072268;28;19929;-74
2021/03/13 02:24:27;;;;;;;;;;;16.60;61.90;;;;;;5075785;28;20412;-74
2021/03/13 02:26:57;;;;;;;;;;;16.60;61.90;;;;;;5068516;28;19916;-75
2021/03/13 02:29:29;;;;;;;;;;;16.60;61.90;;;;;;5062682;28;19928;-75
2021/03/13 02:31:56;;;;;;;;;;;16.60;61.90;;;;;;5043070;28;20011;-74
2021/03/13 02:34:24;;;;;;;;;;;16.60;61.90;;;;;;5037090;28;21639;-75
2021/03/13 02:36:50;;;;;;;;;;;16.60;61.90;;;;;;5053254;28;19919;-74
2021/03/13 02:39:18;;;;;;;;;;;16.60;61.90;;;;;;5035149;28;19921;-74
2021/03/13 02:41:46;;;;;;;;;;;16.60;61.90;;;;;;5034727;28;19921;-74
2021/03/13 02:44:14;;;;;;;;;;;16.60;61.90;;;;;;5026983;28;19920;-74
2021/03/13 02:46:45;;;;;;;;;;;16.60;61.90;;;;;;5044576;28;19913;-75
2021/03/13 02:49:11;;;;;;;;;;;16.60;61.90;;;;;;5042354;28;19975;-74
2021/03/13 02:51:38;;;;;;;;;;;16.60;61.90;;;;;;5053393;28;19972;-74
2021/03/13 02:54:04;;;;;;;;;;;16.60;61.90;;;;;;5051677;28;19921;-76
2021/03/13 02:56:31;;;;;;;;;;;16.60;61.90;;;;;;5046109;28;19925;-74
2021/03/13 02:58:57;;;;;;;;;;;16.60;61.90;;;;;;5045979;28;20357;-75
2021/03/13 03:01:26;;;;;;;;;;;16.60;61.90;;;;;;5045626;28;19951;-74
2021/03/13 03:03:52;;;;;;;;;;;16.60;61.90;;;;;;5034362;28;20006;-75
2021/03/13 03:06:18;;;;;;;;;;;16.60;61.90;;;;;;5051844;28;20003;-75
2021/03/13 03:08:45;;;;;;;;;;;16.60;61.90;;;;;;5049836;28;20016;-74
2021/03/13 03:11:11;;;;;;;;;;;16.60;61.90;;;;;;5033532;28;19921;-75
2021/03/13 03:13:36;;;;;;;;;;;16.60;61.90;;;;;;5045959;28;19928;-74
2021/03/13 03:16:05;;;;;;;;;;;16.60;61.90;;;;;;5049800;28;19998;-76
2021/03/13 03:18:32;;;;;;;;;;;16.60;61.90;;;;;;5048418;28;19920;-75
2021/03/13 03:20:57;;;;;;;;;;;16.60;61.90;;;;;;5052333;28;20063;-74
2021/03/13 03:23:23;;;;;;;;;;;16.60;61.90;;;;;;5046280;28;20019;-74
2021/03/13 03:25:55;;;;;;;;;;;16.60;61.90;;;;;;5048636;28;19924;-74
2021/03/13 03:28:21;;;;;;;;;;;16.60;61.90;;;;;;5059414;28;20394;-76
2021/03/13 03:30:47;;;;;;;;;;;16.60;61.90;;;;;;5066736;28;19960;-75
2021/03/13 03:33:13;;;;;;;;;;;16.60;61.90;;;;;;5071020;28;19920;-74
2021/03/13 03:35:39;;;;;;;;;;;16.60;61.90;;;;;;5053436;28;19916;-74
2021/03/13 03:38:04;;;;;;;;;;;16.60;61.90;;;;;;5069172;28;20430;-74
2021/03/13 03:40:31;;;;;;;;;;;16.60;61.90;;;;;;5054148;28;19912;-74
2021/03/13 03:43:07;;;;;;;;;;;16.60;61.90;;;;;;5066321;28;19927;-74
2021/03/13 03:45:33;;;;;;;;;;;16.60;61.90;;;;;;5044684;28;19996;-74
2021/03/13 03:48:01;;;;;;;;;;;16.60;61.90;;;;;;5069923;28;20333;-75
2021/03/13 03:50:27;;;;;;;;;;;16.60;61.90;;;;;;5073304;28;20426;-74
2021/03/13 03:52:54;;;;;;;;;;;16.60;61.90;;;;;;5070138;28;19920;-75
2021/03/13 03:55:20;;;;;;;;;;;16.60;61.90;;;;;;5048693;28;19959;-74
2021/03/13 03:57:46;;;;;;;;;;;16.60;62.00;;;;;;5057574;28;20316;-75
2021/03/13 04:00:14;;;;;;;;;;;16.60;62.00;;;;;;5066630;28;19920;-75
2021/03/13 04:02:40;;;;;;;;;;;16.60;61.90;;;;;;5064786;28;19920;-75
2021/03/13 04:05:12;;;;;;;;;;;16.60;61.90;;;;;;5069630;28;20030;-74
2021/03/13 04:07:38;;;;;;;;;;;16.60;62.00;;;;;;5056061;28;20003;-75
2021/03/13 04:10:04;;;;;;;;;;;16.60;61.90;;;;;;5066215;28;20039;-74
2021/03/13 04:12:32;;;;;;;;;;;16.60;61.90;;;;;;5065471;28;19920;-74
2021/03/13 04:14:58;;;;;;;;;;;16.60;61.90;;;;;;5044709;28;19927;-73
2021/03/13 04:17:23;;;;;;;;;;;16.60;62.00;;;;;;5067498;28;19912;-74
2021/03/13 04:19:49;;;;;;;;;;;16.60;62.00;;;;;;5067917;28;19960;-75
2021/03/13 04:22:15;;;;;;;;;;;16.60;61.90;;;;;;5070912;28;19950;-74
2021/03/13 04:24:41;;;;;;;;;;;16.60;62.00;;;;;;5070003;28;19947;-76
2021/03/13 04:27:07;;;;;;;;;;;16.60;62.00;;;;;;5051060;28;19928;-74
2021/03/13 04:29:32;;;;;;;;;;;16.60;62.00;;;;;;5062810;28;19921;-75
2021/03/13 04:31:59;;;;;;;;;;;16.60;62.00;;;;;;5032157;28;19913;-74
2021/03/13 04:34:25;;;;;;;;;;;16.60;61.90;;;;;;5056651;28;19928;-73
2021/03/13 04:36:51;;;;;;;;;;;16.60;62.00;;;;;;5057426;28;19920;-76
2021/03/13 04:39:16;;;;;;;;;;;16.60;62.00;;;;;;5049055;28;19924;-76
2021/03/13 04:41:43;;;;;;;;;;;16.60;62.00;;;;;;5050889;28;19929;-76
2021/03/13 04:44:09;;;;;;;;;;;16.60;62.00;;;;;;5032819;28;19917;-74
2021/03/13 04:46:35;;;;;;;;;;;16.60;62.00;;;;;;5051949;28;19917;-76
2021/03/13 04:49:05;;;;;;;;;;;16.60;62.00;;;;;;5036854;28;20259;-75
2021/03/13 04:51:31;;;;;;;;;;;16.60;62.00;;;;;;5057291;28;19935;-74
2021/03/13 04:53:56;;;;;;;;;;;16.60;62.00;;;;;;5038889;28;20535;-74
2021/03/13 04:56:22;;;;;;;;;;;16.60;62.00;;;;;;5046679;28;19920;-75
2021/03/13 04:58:47;;;;;;;;;;;16.60;62.00;;;;;;5053293;28;20095;-75
2021/03/13 05:01:13;;;;;;;;;;;16.50;62.00;;;;;;5035836;28;19916;-74
2021/03/13 05:03:38;;;;;;;;;;;16.60;62.00;;;;;;5048309;28;19912;-74
2021/03/13 05:06:04;;;;;;;;;;;16.60;62.00;;;;;;5029126;28;19936;-75
2021/03/13 05:08:30;;;;;;;;;;;16.60;62.00;;;;;;5035670;28;19920;-74
2021/03/13 05:10:55;;;;;;;;;;;16.60;62.00;;;;;;5032640;28;19921;-73
2021/03/13 05:13:21;;;;;;;;;;;16.60;62.10;;;;;;5036646;28;19913;-75
2021/03/13 05:15:46;;;;;;;;;;;16.50;62.00;;;;;;5036772;28;20476;-75
2021/03/13 05:18:12;;;;;;;;;;;16.60;62.00;;;;;;5047142;28;20008;-75
2021/03/13 05:20:37;;;;;;;;;;;16.60;62.00;;;;;;5037998;28;19913;-74
2021/03/13 05:23:03;;;;;;;;;;;16.60;62.00;;;;;;5055479;28;19927;-75
2021/03/13 05:25:28;;;;;;;;;;;16.50;62.00;;;;;;5045511;28;19923;-74
2021/03/13 05:27:54;;;;;;;;;;;16.60;62.00;;;;;;5052755;28;19924;-74
2021/03/13 05:30:20;;;;;;;;;;;16.50;62.00;;;;;;5049998;28;19932;-75
2021/03/13 05:32:45;;;;;;;;;;;16.60;62.00;;;;;;5045718;28;19988;-75
2021/03/13 05:35:11;;;;;;;;;;;16.60;62.00;;;;;;5051923;28;19944;-74
2021/03/13 05:37:37;;;;;;;;;;;16.60;62.00;;;;;;5049955;28;20328;-74
2021/03/13 05:40:03;;;;;;;;;;;16.50;62.00;;;;;;5046841;28;19913;-75
2021/03/13 05:42:35;;;;;;;;;;;16.60;62.00;;;;;;5049226;28;19964;-74
2021/03/13 05:45:06;;;;;;;;;;;16.60;62.00;;;;;;5047914;28;20444;-74
2021/03/13 05:47:33;;;;;;;;;;;16.60;62.00;;;;;;5045383;28;19956;-76
2021/03/13 05:50:02;;;;;;;;;;;16.60;62.00;;;;;;5031578;28;19917;-74
2021/03/13 05:52:32;;;;;;;;;;;16.60;62.00;;;;;;5051941;28;19913;-74
2021/03/13 05:54:58;;;;;;;;;;;16.60;62.00;;;;;;5027864;28;19921;-74
2021/03/13 05:57:23;;;;;;;;;;;16.60;62.00;;;;;;5027933;28;20016;-74
2021/03/13 05:59:50;;;;;;;;;;;16.60;62.00;;;;;;5030304;28;19920;-74
2021/03/13 06:02:16;;;;;;;;;;;16.60;61.90;;;;;;5041861;28;19991;-74
2021/03/13 06:04:42;;;;;;;;;;;16.60;61.90;;;;;;5050869;28;19913;-75
2021/03/13 06:07:10;;;;;;;;;;;16.60;61.90;;;;;;5042144;28;19917;-74
2021/03/13 06:09:35;;;;;;;;;;;16.60;61.90;;;;;;5051077;28;19967;-76
2021/03/13 06:12:01;;;;;;;;;;;16.60;61.90;;;;;;5032345;28;19924;-75
2021/03/13 06:14:32;;;;;;;;;;;16.60;61.90;;;;;;5034217;28;19974;-75
2021/03/13 06:16:58;;;;;;;;;;;16.70;61.90;;;;;;5030367;28;19928;-74
2021/03/13 06:19:23;;;;;;;;;;;16.60;61.80;;;;;;5033693;28;19913;-75
2021/03/13 06:21:49;;;;;;;;;;;16.70;61.90;;;;;;5045342;28;19966;-74
2021/03/13 06:24:24;;;;;;;;;;;16.60;61.80;;;;;;5038297;28;19917;-74
2021/03/13 06:26:57;;;;;;;;;;;16.70;61.80;;;;;;5032903;28;19999;-75
2021/03/13 06:29:23;;;;;;;;;;;16.70;61.80;;;;;;5032341;28;19936;-75
2021/03/13 06:32:07;;;;;;;;;;;16.70;61.70;;;;;;5051558;28;19999;-74
2021/03/13 06:34:33;;;;;;;;;;;16.70;61.70;;;;;;5066023;28;19912;-74
2021/03/13 06:37:22;;;;;;;;;;;16.70;61.70;;;;;;5054478;28;20011;-74
2021/03/13 06:39:48;;;;;;;;;;;16.70;61.70;;;;;;5066415;28;19912;-75
2021/03/13 06:42:24;;;;;;;;;;;16.70;61.60;;;;;;5065665;28;19927;-74
2021/03/13 06:44:54;;;;;;;;;;;16.80;61.70;;;;;;5051274;28;20000;-76
2021/03/13 06:47:36;;;;;;;;;;;16.80;61.60;;;;;;5065206;28;19912;-74
2021/03/13 06:50:16;;;;;;;;;;;16.80;61.60;;;;;;5054610;28;20373;-76
2021/03/13 06:52:47;;;;;;;;;;;16.70;61.60;;;;;;5051496;28;19939;-74
2021/03/13 06:55:16;;;;;;;;;;;16.80;61.60;;;;;;5072694;28;21343;-74
2021/03/13 06:57:42;;;;;;;;;;;16.70;61.60;;;;;;5064496;28;19948;-75
2021/03/13 07:00:08;;;;;;;;;;;16.70;61.60;;;;;;5066486;28;19926;-74
2021/03/13 07:02:34;;;;;;;;;;;16.70;61.60;;;;;;5063484;28;20019;-74
2021/03/13 07:05:05;;;;;;;;;;;16.80;61.60;;;;;;5058069;28;19912;-74
2021/03/13 07:07:31;;;;;;;;;;;16.80;61.50;;;;;;5053798;28;20315;-75
2021/03/13 07:09:58;;;;;;;;;;;16.80;61.50;;;;;;5070901;28;19916;-74
2021/03/13 07:12:23;;;;;;;;;;;16.80;61.50;;;;;;5046798;28;19938;-74
2021/03/13 07:14:49;;;;;;;;;;;16.70;61.50;;;;;;5059982;28;19916;-74
2021/03/13 07:17:14;;;;;;;;;;;16.80;61.40;;;;;;5049744;28;20298;-74
2021/03/13 07:19:41;;;;;;;;;;;16.80;61.40;;;;;;5068157;28;19927;-74
2021/03/13 07:22:07;;;;;;;;;;;16.80;61.40;;;;;;5054142;28;20304;-74
2021/03/13 07:24:33;;;;;;;;;;;16.80;61.40;;;;;;5075619;28;20006;-75
2021/03/13 07:26:58;;;;;;;;;;;16.80;61.30;;;;;;5062401;28;19916;-74
2021/03/13 07:29:24;;;;;;;;;;;16.80;61.30;;;;;;5053915;28;20274;-75
2021/03/13 07:31:55;;;;;;;;;;;16.80;61.20;;;;;;5044590;28;19928;-76
2021/03/13 07:34:23;;;;;;;;;;;16.80;61.20;;;;;;5049127;28;19913;-75
2021/03/13 07:36:53;;;;;;;;;;;16.90;61.20;;;;;;5048890;28;19955;-75
2021/03/13 07:39:21;;;;;;;;;;;16.80;61.20;;;;;;5021526;28;19981;-75
2021/03/13 07:41:57;;;;;;;;;;;16.80;61.20;;;;;;5042083;28;19921;-75
2021/03/13 07:44:23;;;;;;;;;;;16.90;61.10;;;;;;5029249;28;19965;-74
2021/03/13 07:46:49;;;;;;;;;;;16.90;61.00;;;;;;5034850;28;19913;-75
2021/03/13 07:49:15;;;;;;;;;;;16.90;60.90;;;;;;5047602;28;20293;-74
2021/03/13 07:51:41;;;;;;;;;;;16.90;60.90;;;;;;5036005;28;19913;-75
2021/03/13 07:54:07;;;;;;;;;;;16.90;60.90;;;;;;5060901;28;19920;-74
2021/03/13 07:56:33;;;;;;;;;;;16.90;60.90;;;;;;5047352;28;20012;-75
2021/03/13 07:58:59;;;;;;;;;;;17.00;60.80;;;;;;5052000;28;20000;-75
2021/03/13 08:01:43;;;;;;;;;;;17.00;60.90;;;;;;5028808;28;19916;-74
2021/03/13 08:04:14;;;;;;;;;;;17.00;60.80;;;;;;5049173;28;19939;-75
2021/03/13 08:06:58;;;;;;;;;;;17.00;60.80;;;;;;5032227;28;19959;-75
2021/03/13 08:09:24;;;;;;;;;;;17.00;60.70;;;;;;5035569;28;19913;-75
2021/03/13 08:11:50;;;;;;;;;;;17.00;60.80;;;;;;5028570;28;19920;-76
2021/03/13 08:14:29;;;;;;;;;;;17.00;60.80;;;;;;5044328;28;19913;-75
2021/03/13 08:17:04;;;;;;;;;;;17.00;60.70;;;;;;5045978;28;19963;-75
2021/03/13 08:19:34;;;;;;;;;;;17.00;60.70;;;;;;5048028;28;19916;-75
2021/03/13 08:22:14;;;;;;;;;;;17.00;60.80;;;;;;5047643;28;20401;-75
2021/03/13 08:25:00;;;;;;;;;;;17.00;60.70;;;;;;5052483;28;19964;-75
2021/03/13 08:27:38;;;;;;;;;;;17.00;60.70;;;;;;5028635;28;20371;-76
2021/03/13 08:30:28;;;;;;;;;;;17.00;60.60;;;;;;5060189;28;19967;-76
2021/03/13 08:33:06;;;;;;;;;;;17.00;60.60;;;;;;5047621;28;20003;-75
2021/03/13 08:35:47;;;;;;;;;;;17.10;60.60;;;;;;5070893;28;19912;-77
2021/03/13 08:38:14;;;;;;;;;;;17.00;60.60;;;;;;5056451;28;19919;-75
2021/03/13 08:40:58;;;;;;;;;;;17.00;60.60;;;;;;5055004;28;20019;-76
2021/03/13 08:43:37;;;;;;;;;;;17.00;60.60;;;;;;5047226;28;19964;-75
2021/03/13 08:46:03;;;;;;;;;;;17.10;60.50;;;;;;5063588;28;19919;-74
2021/03/13 08:48:58;;;;;;;;;;;17.10;60.50;;;;;;5055852;28;20011;-76
2021/03/13 08:51:24;;;;;;;;;;;17.10;60.50;;;;;;5028459;28;20349;-74
2021/03/13 08:53:49;;;;;;;;;;;17.10;60.50;;;;;;5056992;28;19912;-74
2021/03/13 08:56:34;;;;;;;;;;;17.10;60.40;;;;;;5067423;28;19916;-74
2021/03/13 08:59:07;;;;;;;;;;;17.10;60.40;;;;;;5048167;28;19935;-74
2021/03/13 09:01:32;;;;;;;;;;;17.10;60.40;;;;;;5043258;28;21319;-76
2021/03/13 09:04:01;;;;;;;;;;;17.10;60.40;;;;;;5057287;28;19955;-74
2021/03/13 09:06:26;;;;;;;;;;;17.10;60.40;;;;;;5076420;28;19920;-74
2021/03/13 09:09:06;;;;;;;;;;;17.10;60.40;;;;;;5054942;28;19913;-73
2021/03/13 09:11:32;;;;;;;;;;;17.10;60.40;;;;;;5063537;28;19999;-75
2021/03/13 09:13:59;;;;;;;;;;;17.20;60.30;;;;;;5062347;28;20077;-74
2021/03/13 09:16:24;;;;;;;;;;;17.20;60.30;;;;;;5062910;28;19950;-73
2021/03/13 09:18:56;;;;;;;;;;;17.20;60.20;;;;;;5052261;28;19913;-73
2021/03/13 09:21:36;;;;;;;;;;;17.20;60.20;;;;;;5075553;28;19912;-74
2021/03/13 09:24:02;;;;;;;;;;;17.20;60.10;;;;;;5070297;28;20437;-74
2021/03/13 09:26:28;;;;;;;;;;;17.30;60.10;;;;;;5049069;28;19912;-76
2021/03/13 09:28:53;;;;;;;;;;;17.20;60.10;;;;;;5062586;28;20490;-74
2021/03/13 09:31:19;;;;;;;;;;;17.20;60.10;;;;;;5064356;28;19927;-73
2021/03/13 09:33:51;;;;;;;;;;;17.20;60.00;;;;;;5070360;28;19920;-72
2021/03/13 09:36:16;;;;;;;;;;;17.30;60.00;;;;;;5073669;28;20281;-73
2021/03/13 09:38:59;;;;;;;;;;;17.30;60.00;;;;;;5071471;28;19920;-73
2021/03/13 09:41:24;;;;;;;;;;;17.20;60.10;;;;;;5040302;28;19922;-73
2021/03/13 09:43:53;;;;;;;;;;;17.20;60.10;;;;;;5042380;28;19920;-72
2021/03/13 09:46:24;;;;;;;;;;;17.20;60.10;;;;;;5076055;28;20266;-73
2021/03/13 09:48:50;;;;;;;;;;;17.20;60.10;;;;;;5076157;28;19967;-75
2021/03/13 09:51:16;;;;;;;;;;;17.30;60.10;;;;;;5053162;28;19916;-73
2021/03/13 09:53:42;;;;;;;;;;;17.20;60.10;;;;;;5071947;28;19920;-73
2021/03/13 09:56:07;;;;;;;;;;;17.20;60.00;;;;;;5064927;28;19967;-73
2021/03/13 09:58:33;;;;;;;;;;;17.30;60.00;;;;;;5048020;28;19923;-73
2021/03/13 10:00:59;;;;;;;;;;;17.30;59.90;;;;;;5070297;28;19987;-73
2021/03/13 10:03:25;;;;;;;;;;;17.30;59.90;;;;;;5070827;28;19947;-73
2021/03/13 10:05:51;;;;;;;;;;;17.30;59.90;;;;;;5072680;28;20361;-73
2021/03/13 10:08:18;;;;;;;;;;;17.30;59.90;;;;;;5062668;28;20010;-73
2021/03/13 10:10:53;;;;;;;;;;;17.30;59.80;;;;;;5066237;28;19955;-74
2021/03/13 10:13:23;;;;;;;;;;;17.30;59.80;;;;;;5043017;28;19920;-74
2021/03/13 10:15:49;;;;;;;;;;;17.30;59.70;;;;;;5064887;28;19990;-72
2021/03/13 10:18:22;;;;;;;;;;;17.30;59.60;;;;;;5063003;28;19916;-73
2021/03/13 10:20:48;;;;;;;;;;;17.30;59.60;;;;;;5076071;28;20365;-74
2021/03/13 10:23:23;;;;;;;;;;;17.30;59.60;;;;;;5055177;28;19920;-75
2021/03/13 10:25:52;;;;;;;;;;;17.30;59.60;;;;;;5050357;28;19913;-73
2021/03/13 10:28:18;;;;;;;;;;;17.40;59.60;;;;;;5059237;28;19913;-75
2021/03/13 10:30:48;;;;;;;;;;;17.40;59.60;;;;;;5055456;28;20409;-73
2021/03/13 10:33:35;;;;;;;;;;;17.40;59.60;;;;;;5046958;28;19967;-74
2021/03/13 10:36:01;;;;;;;;;;;17.40;59.50;;;;;;5034114;28;19913;-73
2021/03/13 10:38:27;;;;;;;;;;;17.40;59.50;;;;;;5061938;28;19912;-72
2021/03/13 10:41:06;;;;;;;;;;;17.40;59.50;;;;;;5035757;28;20170;-73
2021/03/13 10:43:45;;;;;;;;;;;17.40;59.50;;;;;;5030143;28;20370;-75
2021/03/13 10:46:23;;;;;;;;;;;17.40;59.50;;;;;;5035184;28;19921;-75
2021/03/13 10:48:53;;;;;;;;;;;17.40;59.50;;;;;;5043853;28;20382;-75
2021/03/13 10:51:28;;;;;;;;;;;17.40;59.40;;;;;;5031866;28;20265;-75
2021/03/13 10:53:55;;;;;;;;;;;17.40;59.40;;;;;;5035603;28;20484;-78
2021/03/13 10:56:21;;;;;;;;;;;17.40;59.30;;;;;;5047444;28;19913;-75
2021/03/13 10:58:50;;;;;;;;;;;17.50;59.30;;;;;;5050110;28;19920;-75
2021/03/13 11:01:17;;;;;;;;;;;17.50;59.30;;;;;;5046522;28;20016;-80
2021/03/13 11:03:43;;;;;;;;;;;17.50;59.30;;;;;;5047704;28;20372;-75
2021/03/13 11:06:10;;;;;;;;;;;17.50;59.20;;;;;;5034550;28;19925;-75
2021/03/13 11:08:41;;;;;;;;;;;17.50;59.20;;;;;;5050892;28;20281;-76
2021/03/13 11:11:07;;;;;;;;;;;17.50;59.30;;;;;;5046183;28;20316;-75
2021/03/13 11:13:32;;;;;;;;;;;17.50;59.30;;;;;;5028492;28;19917;-76
2021/03/13 11:15:58;;;;;;;;;;;17.50;59.30;;;;;;5034001;28;20361;-76
2021/03/13 11:18:23;;;;;;;;;;;17.50;59.30;;;;;;5049509;28;20027;-77
2021/03/13 11:20:49;;;;;;;;;;;17.50;59.20;;;;;;5043297;28;19931;-75
2021/03/13 11:23:16;;;;;;;;;;;17.50;59.20;;;;;;5033664;28;19917;-77
2021/03/13 11:25:41;;;;;;;;;;;17.50;59.10;;;;;;5030376;28;19912;-75
2021/03/13 11:28:07;;;;;;;;;;;17.50;59.10;;;;;;5064958;28;19908;-75
2021/03/13 11:30:33;;;;;;;;;;;17.50;59.10;;;;;;5024769;28;19917;-77
2021/03/13 11:32:59;;;;;;;;;;;17.50;59.10;;;;;;5049783;28;19916;-76
2021/03/13 11:35:24;;;;;;;;;;;17.50;59.10;;;;;;5066290;28;19953;-76
2021/03/13 11:37:56;;;;;;;;;;;17.50;59.10;;;;;;5033245;28;19909;-76
2021/03/13 11:40:22;;;;;;;;;;;17.60;59.00;;;;;;5045123;28;19909;-76
2021/03/13 11:42:49;;;;;;;;;;;17.50;59.00;;;;;;5025151;28;19966;-73
2021/03/13 11:45:15;;;;;;;;;;;17.60;59.00;;;;;;5055870;28;20016;-74
2021/03/13 11:47:41;;;;;;;;;;;17.60;59.00;;;;;;5034190;28;19975;-73
2021/03/13 11:50:18;;;;;;;;;;;17.60;58.90;;;;;;5051799;28;20329;-73
2021/03/13 11:52:50;;;;;;;;;;;17.60;58.90;;;;;;5063074;28;19909;-77
2021/03/13 11:55:16;;;;;;;;;;;17.60;58.90;;;;;;5056397;28;19913;-77
2021/03/13 11:57:41;;;;;;;;;;;17.60;58.90;;;;;;5030105;28;19917;-78
2021/03/13 12:00:08;;;;;;;;;;;17.60;58.90;;;;;;5033800;28;19927;-78
2021/03/13 12:02:34;;;;;;;;;;;17.60;58.90;;;;;;5030272;28;19921;-78
2021/03/13 12:05:09;;;;;;;;;;;17.60;58.90;;;;;;5047404;28;20000;-77
2021/03/13 12:07:35;;;;;;;;;;;17.60;58.80;;;;;;5036096;28;20063;-77
2021/03/13 12:10:01;;;;;;;;;;;17.60;58.80;;;;;;5059901;28;19913;-76
2021/03/13 12:12:26;;;;;;;;;;;17.70;58.80;;;;;;5042326;28;20304;-77
2021/03/13 12:14:52;;;;;;;;;;;17.70;58.70;;;;;;5027978;28;20226;-78
2021/03/13 12:17:18;;;;;;;;;;;17.70;58.70;;;;;;5057212;28;19919;-78
2021/03/13 12:19:45;;;;;;;;;;;17.70;58.70;;;;;;5054855;28;19913;-77
2021/03/13 12:22:10;;;;;;;;;;;17.60;58.80;;;;;;5054912;28;19924;-77
2021/03/13 12:24:36;;;;;;;;;;;17.60;58.80;;;;;;5056872;28;19921;-77
2021/03/13 12:27:02;;;;;;;;;;;17.60;58.80;;;;;;5029404;28;20518;-78
2021/03/13 12:29:28;;;;;;;;;;;17.70;58.80;;;;;;5053956;28;19925;-77
2021/03/13 12:31:53;;;;;;;;;;;17.70;58.70;;;;;;5066834;28;20365;-77
2021/03/13 12:34:19;;;;;;;;;;;17.70;58.70;;;;;;5073285;28;19913;-76
2021/03/13 12:36:45;;;;;;;;;;;17.70;58.60;;;;;;5057075;28;19974;-77
2021/03/13 12:39:10;;;;;;;;;;;17.70;58.60;;;;;;5057375;28;19920;-77
2021/03/13 12:41:36;;;;;;;;;;;17.70;58.60;;;;;;5071738;28;20262;-76
2021/03/13 12:44:01;;;;;;;;;;;17.70;58.70;;;;;;5050363;28;19925;-77
2021/03/13 12:46:27;;;;;;;;;;;17.70;58.70;;;;;;5069647;28;20269;-76
2021/03/13 12:48:52;;;;;;;;;;;17.60;58.70;;;;;;5056484;28;19923;-77
2021/03/13 12:51:21;;;;;;;;;;;17.60;58.80;;;;;;5056544;28;19920;-77
2021/03/13 12:53:50;;;;;;;;;;;17.60;58.80;;;;;;5047688;28;19916;-77
2021/03/13 12:56:20;;;;;;;;;;;17.60;58.90;;;;;;5053711;28;20290;-76
2021/03/13 12:58:47;;;;;;;;;;;17.50;58.90;;;;;;5068796;28;19924;-77
2021/03/13 13:01:12;;;;;;;;;;;17.60;58.90;;;;;;5052099;28;19921;-77
2021/03/13 13:03:38;;;;;;;;;;;17.60;58.90;;;;;;5063438;28;19923;-77
2021/03/13 13:06:04;;;;;;;;;;;17.60;58.90;;;;;;5054927;28;20019;-77
2021/03/13 13:08:34;;;;;;;;;;;17.60;58.90;;;;;;5056131;28;19912;-76
2021/03/13 13:11:00;;;;;;;;;;;17.60;59.00;;;;;;5065726;28;20365;-76
2021/03/13 13:13:25;;;;;;;;;;;17.50;59.00;;;;;;5070985;28;19922;-78
2021/03/13 13:15:52;;;;;;;;;;;17.50;59.00;;;;;;5049673;28;19920;-77
2021/03/13 13:18:23;;;;;;;;;;;17.60;59.00;;;;;;5053600;28;19948;-79
2021/03/13 13:20:50;;;;;;;;;;;17.60;59.00;;;;;;5051560;28;19912;-77
2021/03/13 13:23:15;;;;;;;;;;;17.60;59.00;;;;;;5070165;28;20262;-77
2021/03/13 13:25:46;;;;;;;;;;;17.60;59.00;;;;;;5064708;28;19963;-77
2021/03/13 13:28:12;;;;;;;;;;;17.60;59.00;;;;;;5071213;28;20011;-79
2021/03/13 13:30:38;;;;;;;;;;;17.60;59.00;;;;;;5057562;28;20354;-78
2021/03/13 13:33:03;;;;;;;;;;;17.60;59.00;;;;;;5048151;28;19913;-77
2021/03/13 13:35:30;;;;;;;;;;;17.60;59.00;;;;;;5036046;28;19912;-77
2021/03/13 13:37:55;;;;;;;;;;;17.60;59.00;;;;;;5049617;28;19948;-77
2021/03/13 13:40:26;;;;;;;;;;;17.50;59.10;;;;;;5049709;28;19916;-76
2021/03/13 13:42:52;;;;;;;;;;;17.50;59.10;;;;;;5030790;28;19917;-78
2021/03/13 13:45:22;;;;;;;;;;;17.50;59.10;;;;;;5047359;28;20354;-77
2021/03/13 13:47:48;;;;;;;;;;;17.50;59.10;;;;;;5034022;28;19967;-78
2021/03/13 13:50:19;;;;;;;;;;;17.50;59.20;;;;;;5035551;28;19941;-78
2021/03/13 13:52:57;;;;;;;;;;;17.50;59.20;;;;;;5035431;28;19921;-79
2021/03/13 13:55:33;;;;;;;;;;;17.60;59.20;;;;;;5025806;28;19945;-78
2021/03/13 13:57:59;;;;;;;;;;;17.50;59.20;;;;;;5045740;28;20409;-77
2021/03/13 14:00:25;;;;;;;;;;;17.50;59.30;;;;;;5033346;28;19912;-78
2021/03/13 14:02:55;;;;;;;;;;;17.50;59.30;;;;;;5030123;28;20274;-77
2021/03/13 14:05:22;;;;;;;;;;;17.50;59.40;;;;;;5032401;28;19916;-79
2021/03/13 14:07:48;;;;;;;;;;;17.50;59.50;;;;;;5029295;28;19913;-78
2021/03/13 14:10:14;;;;;;;;;;;17.40;59.50;;;;;;5045254;28;19967;-77
2021/03/13 14:12:40;;;;;;;;;;;17.40;59.50;;;;;;5034306;28;19943;-77
2021/03/13 14:15:11;;;;;;;;;;;17.40;59.50;;;;;;5034280;28;20436;-77
2021/03/13 14:17:43;;;;;;;;;;;17.40;59.50;;;;;;5033965;28;19959;-77
2021/03/13 14:20:14;;;;;;;;;;;17.40;59.50;;;;;;5051803;28;19928;-77
2021/03/13 14:22:39;;;;;;;;;;;17.40;59.50;;;;;;5033925;28;19924;-77